createdAt,value
2017-05-07T00:00:40.339Z,88.9
2017-05-07T00:01:20.884Z,89
2017-05-07T00:02:01.415Z,89.29
2017-05-07T00:02:41.945Z,89.29
2017-05-07T00:03:22.461Z,89.58
2017-05-07T00:04:02.985Z,89.38
2017-05-07T00:04:43.491Z,89.48
2017-05-07T00:05:24.002Z,89
2017-05-07T00:06:04.547Z,88.9
2017-05-07T00:06:45.074Z,89
2017-05-07T00:07:25.578Z,89.29
2017-05-07T00:08:06.105Z,89.29
2017-05-07T00:08:46.629Z,88.71
2017-05-07T00:09:27.160Z,89.09
2017-05-07T00:10:07.694Z,89.09
2017-05-07T00:10:48.213Z,89
2017-05-07T00:11:28.743Z,89.48
2017-05-07T00:12:09.272Z,89.29
2017-05-07T00:12:49.801Z,89.95
2017-05-07T00:13:30.321Z,89.58
2017-05-07T00:14:10.864Z,89.48
2017-05-07T00:14:51.382Z,89.48
2017-05-07T00:15:31.898Z,89.09
2017-05-07T00:16:12.442Z,89.29
2017-05-07T00:16:53.524Z,89.19
2017-05-07T00:17:34.007Z,89.09
2017-05-07T00:18:14.553Z,88.81
2017-05-07T00:18:55.059Z,89.09
2017-05-07T00:19:35.578Z,89.09
2017-05-07T00:20:16.123Z,89.38
2017-05-07T00:20:56.670Z,89.29
2017-05-07T00:21:37.190Z,89.58
2017-05-07T00:22:19.690Z,89.58
2017-05-07T00:23:00.230Z,89.38
2017-05-07T00:23:40.758Z,90.05
2017-05-07T00:24:21.263Z,90.34
2017-05-07T00:25:01.829Z,90.24
2017-05-07T00:25:42.356Z,90.48
2017-05-07T00:26:22.979Z,90.39
2017-05-07T00:27:03.509Z,90.39
2017-05-07T00:27:44.023Z,90.58
2017-05-07T00:28:24.554Z,90.58
2017-05-07T00:29:05.082Z,90.2
2017-05-07T00:29:45.648Z,90.63
2017-05-07T00:30:26.129Z,90.63
2017-05-07T00:31:06.679Z,90.44
2017-05-07T00:31:47.193Z,90.39
2017-05-07T00:32:27.711Z,90.39
2017-05-07T00:33:08.239Z,90.44
2017-05-07T00:33:48.787Z,90.39
2017-05-07T00:34:29.266Z,90.39
2017-05-07T00:35:09.771Z,90.48
2017-05-07T00:35:50.291Z,90.58
2017-05-07T00:36:30.806Z,90.67
2017-05-07T00:37:11.335Z,90.3
2017-05-07T00:37:51.865Z,90.77
2017-05-07T00:38:32.458Z,90.77
2017-05-07T00:39:12.950Z,90.67
2017-05-07T00:39:53.483Z,90.44
2017-05-07T00:40:34.006Z,90.34
2017-05-07T00:41:14.533Z,90.3
2017-05-07T00:41:55.069Z,90.44
2017-05-07T00:42:35.607Z,90.63
2017-05-07T00:43:16.142Z,90.63
2017-05-07T00:43:56.681Z,90.44
2017-05-07T00:44:37.213Z,90.24
2017-05-07T00:45:17.737Z,90.01
2017-05-07T00:45:58.245Z,90.05
2017-05-07T00:46:38.765Z,89.81
2017-05-07T00:47:19.312Z,90.34
2017-05-07T00:47:59.831Z,90.01
2017-05-07T00:48:40.349Z,89.91
2017-05-07T00:49:20.856Z,90.39
2017-05-07T00:50:01.383Z,90.58
2017-05-07T00:50:41.900Z,90.77
2017-05-07T00:51:22.418Z,90.48
2017-05-07T00:52:02.943Z,90.77
2017-05-07T00:52:43.491Z,90.34
2017-05-07T00:53:24.012Z,90.01
2017-05-07T00:54:04.546Z,89.91
2017-05-07T00:54:45.074Z,90.05
2017-05-07T00:55:25.625Z,89.76
2017-05-07T00:56:06.148Z,90.05
2017-05-07T00:56:46.700Z,90.05
2017-05-07T00:57:27.261Z,90.15
2017-05-07T00:58:07.792Z,89.76
2017-05-07T00:58:48.314Z,89.72
2017-05-07T00:59:28.841Z,89.86
2017-05-07T01:00:09.390Z,89.76
2017-05-07T01:00:49.878Z,89.81
2017-05-07T01:01:30.421Z,90.3
2017-05-07T01:02:10.950Z,90.01
2017-05-07T01:02:51.480Z,89.91
2017-05-07T01:03:31.996Z,90.48
2017-05-07T01:04:12.543Z,90.58
2017-05-07T01:04:53.122Z,90.77
2017-05-07T01:05:33.631Z,91.16
2017-05-07T01:06:14.154Z,90.87
2017-05-07T01:06:54.699Z,91.35
2017-05-07T01:07:35.193Z,91.16
2017-05-07T01:08:15.748Z,91.16
2017-05-07T01:08:56.277Z,91.06
2017-05-07T01:09:36.769Z,90.96
2017-05-07T01:10:17.285Z,90.3
2017-05-07T01:10:57.823Z,90.2
2017-05-07T01:11:38.341Z,89.81
2017-05-07T01:12:18.849Z,90.3
2017-05-07T01:12:59.431Z,90.3
2017-05-07T01:13:39.951Z,90.48
2017-05-07T01:14:20.488Z,90.39
2017-05-07T01:15:01.036Z,90.58
2017-05-07T01:15:41.576Z,90.48
2017-05-07T01:16:22.102Z,90.3
2017-05-07T01:17:02.626Z,90.58
2017-05-07T01:17:43.148Z,90.3
2017-05-07T01:18:23.806Z,90.01
2017-05-07T01:19:04.339Z,90.01
2017-05-07T01:19:44.835Z,90.2
2017-05-07T01:20:25.350Z,89.81
2017-05-07T01:21:05.871Z,89.81
2017-05-07T01:21:46.399Z,89.24
2017-05-07T01:22:26.919Z,89.43
2017-05-07T01:23:07.451Z,89.53
2017-05-07T01:23:47.993Z,89.24
2017-05-07T01:24:28.514Z,89.62
2017-05-07T01:25:09.039Z,90.1
2017-05-07T01:25:49.557Z,90.3
2017-05-07T01:26:30.076Z,90.01
2017-05-07T01:27:10.598Z,89.34
2017-05-07T01:27:51.127Z,89.43
2017-05-07T01:28:31.631Z,89.34
2017-05-07T01:29:12.149Z,89.72
2017-05-07T01:29:52.682Z,89.91
2017-05-07T01:30:33.198Z,90.01
2017-05-07T01:31:13.716Z,90.01
2017-05-07T01:31:54.252Z,90.01
2017-05-07T01:32:34.785Z,90.01
2017-05-07T01:33:15.312Z,89.81
2017-05-07T01:33:55.853Z,89.72
2017-05-07T01:34:36.380Z,89.34
2017-05-07T01:35:16.922Z,89.43
2017-05-07T01:35:57.453Z,90.1
2017-05-07T01:36:37.970Z,89.81
2017-05-07T01:37:18.495Z,90.01
2017-05-07T01:37:59.019Z,89.91
2017-05-07T01:38:39.528Z,89.81
2017-05-07T01:39:20.054Z,90.01
2017-05-07T01:40:00.595Z,90.39
2017-05-07T01:40:41.104Z,90.2
2017-05-07T01:41:21.634Z,90.1
2017-05-07T01:42:02.165Z,90.1
2017-05-07T01:42:42.687Z,90.1
2017-05-07T01:43:23.182Z,90.1
2017-05-07T01:44:03.698Z,90.01
2017-05-07T01:44:44.228Z,90.2
2017-05-07T01:45:24.739Z,90.2
2017-05-07T01:46:05.261Z,89.62
2017-05-07T01:46:45.792Z,89.72
2017-05-07T01:47:26.333Z,89.91
2017-05-07T01:48:06.855Z,89.81
2017-05-07T01:48:47.374Z,89.53
2017-05-07T01:49:27.894Z,90.01
2017-05-07T01:50:08.420Z,89.72
2017-05-07T01:50:48.930Z,89.91
2017-05-07T01:51:29.462Z,89.81
2017-05-07T01:52:09.982Z,89.91
2017-05-07T01:52:50.502Z,89.91
2017-05-07T01:53:31.010Z,89.62
2017-05-07T01:54:11.528Z,89.72
2017-05-07T01:54:52.050Z,89.34
2017-05-07T01:55:32.572Z,89.53
2017-05-07T01:56:13.091Z,89.34
2017-05-07T01:56:53.667Z,89.05
2017-05-07T01:57:34.182Z,89.62
2017-05-07T01:58:14.688Z,89.72
2017-05-07T01:58:55.251Z,89.43
2017-05-07T01:59:35.783Z,89.24
2017-05-07T02:00:16.314Z,89.05
2017-05-07T02:00:56.835Z,89.24
2017-05-07T02:01:37.349Z,88.86
2017-05-07T02:02:17.875Z,88.95
2017-05-07T02:02:58.424Z,89.34
2017-05-07T02:03:38.940Z,88.95
2017-05-07T02:04:19.469Z,89.09
2017-05-07T02:05:00.015Z,89.15
2017-05-07T02:05:40.533Z,89.19
2017-05-07T02:06:21.050Z,89.48
2017-05-07T02:07:01.599Z,89.34
2017-05-07T02:07:42.119Z,89.19
2017-05-07T02:08:22.658Z,89.15
2017-05-07T02:09:03.184Z,89.29
2017-05-07T02:09:43.703Z,89.29
2017-05-07T02:10:24.238Z,89
2017-05-07T02:11:04.756Z,89
2017-05-07T02:11:45.294Z,89.29
2017-05-07T02:12:25.818Z,88.71
2017-05-07T02:13:06.339Z,88.9
2017-05-07T02:13:46.863Z,89
2017-05-07T02:14:27.440Z,89.19
2017-05-07T02:15:07.953Z,88.52
2017-05-07T02:15:48.465Z,89
2017-05-07T02:16:29.005Z,89
2017-05-07T02:17:09.517Z,89.19
2017-05-07T02:17:50.033Z,89
2017-05-07T02:18:30.554Z,89
2017-05-07T02:19:11.070Z,89.09
2017-05-07T02:19:51.587Z,88.9
2017-05-07T02:20:32.114Z,88.9
2017-05-07T02:21:12.635Z,88.9
2017-05-07T02:21:53.167Z,89
2017-05-07T02:22:33.667Z,88.9
2017-05-07T02:23:14.192Z,89.09
2017-05-07T02:23:54.746Z,89
2017-05-07T02:24:35.230Z,89.29
2017-05-07T02:25:15.755Z,89.86
2017-05-07T02:25:56.273Z,89.19
2017-05-07T02:26:36.784Z,89.58
2017-05-07T02:27:17.308Z,89.29
2017-05-07T02:27:57.833Z,89.38
2017-05-07T02:28:38.347Z,89.53
2017-05-07T02:29:18.867Z,89.58
2017-05-07T02:29:59.406Z,89.15
2017-05-07T02:30:39.936Z,89.38
2017-05-07T02:31:20.453Z,89.38
2017-05-07T02:32:00.985Z,89.29
2017-05-07T02:32:41.501Z,89.62
2017-05-07T02:33:22.006Z,89.53
2017-05-07T02:34:02.529Z,89.38
2017-05-07T02:34:43.051Z,89.48
2017-05-07T02:35:23.555Z,89.29
2017-05-07T02:36:04.090Z,89.38
2017-05-07T02:36:44.621Z,89.86
2017-05-07T02:37:25.169Z,89.48
2017-05-07T02:38:05.686Z,89.48
2017-05-07T02:38:46.212Z,89.19
2017-05-07T02:39:26.727Z,89
2017-05-07T02:40:07.244Z,89.19
2017-05-07T02:40:47.817Z,89.29
2017-05-07T02:41:28.284Z,88.9
2017-05-07T02:42:08.810Z,88.9
2017-05-07T02:42:49.335Z,88.9
2017-05-07T02:43:29.850Z,89.48
2017-05-07T02:44:10.363Z,89.29
2017-05-07T02:44:50.901Z,89.58
2017-05-07T02:45:31.448Z,89.48
2017-05-07T02:46:11.964Z,89.48
2017-05-07T02:46:52.485Z,89.67
2017-05-07T02:47:33.006Z,89.09
2017-05-07T02:48:13.551Z,89
2017-05-07T02:48:54.069Z,89.29
2017-05-07T02:49:34.595Z,89.38
2017-05-07T02:50:15.118Z,88.86
2017-05-07T02:50:55.648Z,89.48
2017-05-07T02:51:36.169Z,89.67
2017-05-07T02:52:16.670Z,89.58
2017-05-07T02:52:57.208Z,89.58
2017-05-07T02:53:37.743Z,89
2017-05-07T02:54:18.317Z,89.48
2017-05-07T02:54:58.830Z,89.19
2017-05-07T02:55:39.349Z,89.34
2017-05-07T02:56:19.886Z,89.48
2017-05-07T02:57:00.413Z,89.67
2017-05-07T02:57:40.934Z,89.58
2017-05-07T02:58:21.454Z,89.67
2017-05-07T02:59:01.977Z,89.19
2017-05-07T02:59:42.496Z,89
2017-05-07T03:00:23.018Z,89.29
2017-05-07T03:01:03.540Z,89.19
2017-05-07T03:01:44.066Z,89.29
2017-05-07T03:02:24.582Z,89.19
2017-05-07T03:03:05.099Z,89.09
2017-05-07T03:03:45.612Z,89.19
2017-05-07T03:04:26.139Z,89.38
2017-05-07T03:05:06.652Z,89.67
2017-05-07T03:05:47.169Z,89.29
2017-05-07T03:06:27.689Z,89.29
2017-05-07T03:07:08.229Z,89.29
2017-05-07T03:07:48.755Z,89.48
2017-05-07T03:08:29.266Z,89.67
2017-05-07T03:09:09.784Z,89.19
2017-05-07T03:09:50.317Z,88.9
2017-05-07T03:10:30.841Z,88.9
2017-05-07T03:11:11.355Z,88.81
2017-05-07T03:11:51.877Z,89.19
2017-05-07T03:12:32.412Z,88.9
2017-05-07T03:13:12.944Z,89.19
2017-05-07T03:13:53.478Z,89.15
2017-05-07T03:14:33.999Z,89.62
2017-05-07T03:15:14.524Z,89.24
2017-05-07T03:15:55.057Z,89.34
2017-05-07T03:16:35.581Z,89.43
2017-05-07T03:17:16.127Z,90.01
2017-05-07T03:17:56.663Z,89.72
2017-05-07T03:18:37.173Z,89.53
2017-05-07T03:19:17.696Z,89.72
2017-05-07T03:19:58.211Z,89.81
2017-05-07T03:20:38.733Z,89.72
2017-05-07T03:21:19.249Z,89.72
2017-05-07T03:21:59.814Z,89.62
2017-05-07T03:22:40.326Z,89.43
2017-05-07T03:23:20.841Z,89.81
2017-05-07T03:24:01.380Z,89.72
2017-05-07T03:24:41.907Z,89.91
2017-05-07T03:25:22.434Z,89.81
2017-05-07T03:26:02.952Z,89.91
2017-05-07T03:26:43.468Z,90.39
2017-05-07T03:27:23.991Z,89.91
2017-05-07T03:28:04.549Z,89.81
2017-05-07T03:28:45.035Z,89.72
2017-05-07T03:29:25.556Z,89.91
2017-05-07T03:30:06.076Z,90.01
2017-05-07T03:30:46.590Z,89.67
2017-05-07T03:31:27.106Z,89.67
2017-05-07T03:32:07.628Z,89.34
2017-05-07T03:32:48.179Z,89.34
2017-05-07T03:33:28.671Z,89.34
2017-05-07T03:34:09.198Z,89.34
2017-05-07T03:34:49.712Z,89.76
2017-05-07T03:35:30.228Z,89.48
2017-05-07T03:36:10.776Z,89.15
2017-05-07T03:36:51.295Z,89.34
2017-05-07T03:37:31.820Z,89.53
2017-05-07T03:38:12.342Z,90.2
2017-05-07T03:38:52.873Z,89.91
2017-05-07T03:39:33.398Z,89.72
2017-05-07T03:40:13.900Z,89.34
2017-05-07T03:40:54.448Z,89.53
2017-05-07T03:41:34.949Z,89.72
2017-05-07T03:42:15.468Z,89.62
2017-05-07T03:42:55.998Z,89.91
2017-05-07T03:43:36.514Z,89.81
2017-05-07T03:44:17.039Z,89.62
2017-05-07T03:44:57.554Z,89.62
2017-05-07T03:45:38.079Z,89.53
2017-05-07T03:46:18.601Z,89.91
2017-05-07T03:46:59.142Z,89.91
2017-05-07T03:47:39.657Z,90.2
2017-05-07T03:48:20.182Z,90.67
2017-05-07T03:49:00.739Z,90.39
2017-05-07T03:49:41.249Z,90.3
2017-05-07T03:50:21.772Z,90.01
2017-05-07T03:51:02.312Z,90.39
2017-05-07T03:51:42.835Z,90.1
2017-05-07T03:52:23.353Z,90.87
2017-05-07T03:53:03.872Z,90.2
2017-05-07T03:53:44.396Z,90.67
2017-05-07T03:54:24.920Z,90.39
2017-05-07T03:55:05.445Z,90.48
2017-05-07T03:55:45.967Z,90.58
2017-05-07T03:56:26.542Z,90.58
2017-05-07T03:57:07.050Z,90.48
2017-05-07T03:57:47.568Z,90.39
2017-05-07T03:58:28.092Z,90.3
2017-05-07T03:59:08.617Z,90.58
2017-05-07T03:59:49.135Z,90.01
2017-05-07T04:00:29.657Z,90.01
2017-05-07T04:01:10.199Z,90.58
2017-05-07T04:01:50.721Z,90.48
2017-05-07T04:02:31.256Z,90.58
2017-05-07T04:03:11.820Z,90.48
2017-05-07T04:03:52.352Z,90.39
2017-05-07T04:04:32.881Z,90.2
2017-05-07T04:05:13.418Z,91.06
2017-05-07T04:05:53.967Z,91.16
2017-05-07T04:06:34.479Z,90.87
2017-05-07T04:07:15.152Z,90.96
2017-05-07T04:07:55.707Z,90.87
2017-05-07T04:08:36.202Z,91.25
2017-05-07T04:09:16.719Z,91.06
2017-05-07T04:09:57.248Z,91.16
2017-05-07T04:10:37.772Z,91.16
2017-05-07T04:11:18.304Z,91.16
2017-05-07T04:11:58.828Z,91.16
2017-05-07T04:12:39.352Z,91.44
2017-05-07T04:13:19.886Z,91.06
2017-05-07T04:14:00.454Z,91.44
2017-05-07T04:14:40.966Z,90.96
2017-05-07T04:15:21.530Z,90.96
2017-05-07T04:16:02.027Z,91.16
2017-05-07T04:16:42.548Z,91.25
2017-05-07T04:17:23.096Z,91.44
2017-05-07T04:18:03.620Z,91.44
2017-05-07T04:18:44.154Z,91.06
2017-05-07T04:19:24.670Z,91.16
2017-05-07T04:20:05.222Z,91.06
2017-05-07T04:20:45.736Z,91.25
2017-05-07T04:21:26.300Z,90.96
2017-05-07T04:22:06.815Z,90.58
2017-05-07T04:22:47.325Z,90.87
2017-05-07T04:23:27.836Z,90.48
2017-05-07T04:24:08.357Z,90.2
2017-05-07T04:24:48.883Z,90.58
2017-05-07T04:25:29.412Z,90.3
2017-05-07T04:26:09.921Z,90.15
2017-05-07T04:26:50.455Z,90.1
2017-05-07T04:27:30.973Z,89.91
2017-05-07T04:28:11.485Z,90.15
2017-05-07T04:28:52.009Z,89.95
2017-05-07T04:29:32.560Z,90.24
2017-05-07T04:30:13.060Z,90.01
2017-05-07T04:30:53.571Z,90.39
2017-05-07T04:31:34.105Z,90.77
2017-05-07T04:32:14.617Z,90.58
2017-05-07T04:32:56.028Z,90.39
2017-05-07T04:33:36.563Z,90.3
2017-05-07T04:34:17.069Z,90.48
2017-05-07T04:34:57.628Z,90.77
2017-05-07T04:35:38.159Z,90.39
2017-05-07T04:36:18.664Z,90.48
2017-05-07T04:36:59.190Z,90.58
2017-05-07T04:37:39.715Z,90.87
2017-05-07T04:38:20.238Z,91.06
2017-05-07T04:39:00.767Z,90.2
2017-05-07T04:39:41.294Z,90.3
2017-05-07T04:40:21.803Z,90.67
2017-05-07T04:41:02.322Z,91.06
2017-05-07T04:41:42.855Z,91.44
2017-05-07T04:43:56.120Z,91.83
2017-05-07T04:44:36.641Z,91.83
2017-05-07T04:45:17.177Z,91.53
2017-05-07T04:45:57.667Z,91.44
2017-05-07T04:46:38.193Z,92.02
2017-05-07T04:47:18.709Z,91.44
2017-05-07T04:47:59.223Z,92.02
2017-05-07T04:48:39.741Z,92.3
2017-05-07T04:49:20.305Z,92.21
2017-05-07T04:50:00.833Z,92.3
2017-05-07T04:50:41.351Z,92.21
2017-05-07T04:51:21.865Z,92.11
2017-05-07T04:52:02.422Z,91.53
2017-05-07T04:52:42.936Z,91.92
2017-05-07T04:53:23.458Z,92.02
2017-05-07T04:54:03.998Z,91.44
2017-05-07T04:54:44.513Z,92.21
2017-05-07T04:55:25.059Z,92.02
2017-05-07T04:56:05.588Z,92.11
2017-05-07T04:56:46.112Z,91.63
2017-05-07T04:57:26.624Z,91.25
2017-05-07T04:58:07.157Z,90.67
2017-05-07T04:58:47.691Z,90.48
2017-05-07T04:59:28.220Z,90.3
2017-05-07T05:00:08.723Z,90.48
2017-05-07T05:02:06.967Z,91.16
2017-05-07T05:02:47.474Z,91.44
2017-05-07T05:03:27.997Z,90.87
2017-05-07T05:04:08.513Z,90.67
2017-05-07T05:04:49.038Z,90.77
2017-05-07T05:05:29.551Z,90.82
2017-05-07T05:06:10.053Z,90.82
2017-05-07T05:06:50.589Z,90.39
2017-05-07T05:07:31.154Z,90.44
2017-05-07T05:08:11.650Z,90.63
2017-05-07T05:08:52.183Z,90.34
2017-05-07T05:09:32.700Z,90.72
2017-05-07T05:10:13.244Z,90.58
2017-05-07T05:10:53.739Z,90.58
2017-05-07T05:11:34.261Z,90.3
2017-05-07T05:12:14.762Z,90.58
2017-05-07T05:12:55.307Z,90.67
2017-05-07T05:13:35.821Z,90.58
2017-05-07T05:14:16.343Z,90.3
2017-05-07T05:14:56.881Z,90.3
2017-05-07T05:15:37.400Z,90.3
2017-05-07T05:16:17.926Z,90.77
2017-05-07T05:16:58.465Z,90.48
2017-05-07T05:17:38.988Z,90.67
2017-05-07T05:18:19.509Z,90.87
2017-05-07T05:20:17.804Z,90.67
2017-05-07T05:20:58.338Z,90.1
2017-05-07T05:21:38.858Z,90.77
2017-05-07T05:22:19.419Z,90.39
2017-05-07T05:22:59.963Z,90.39
2017-05-07T05:23:40.484Z,90.67
2017-05-07T05:24:21.016Z,90.77
2017-05-07T05:25:01.539Z,91.16
2017-05-07T05:25:42.066Z,91.06
2017-05-07T05:26:22.583Z,91.16
2017-05-07T05:27:03.101Z,90.48
2017-05-07T05:27:43.619Z,90.39
2017-05-07T05:28:24.138Z,90.1
2017-05-07T05:29:04.664Z,90.39
2017-05-07T05:29:45.226Z,90.3
2017-05-07T05:30:25.725Z,90.58
2017-05-07T05:31:06.236Z,90.58
2017-05-07T05:31:46.757Z,90.48
2017-05-07T05:32:27.273Z,90.1
2017-05-07T05:33:07.794Z,90.39
2017-05-07T05:33:48.340Z,90.77
2017-05-07T05:34:28.882Z,90.58
2017-05-07T05:35:09.412Z,91.16
2017-05-07T05:35:49.937Z,90.39
2017-05-07T05:36:30.442Z,91.16
2017-05-07T05:37:10.966Z,91.06
2017-05-07T05:37:51.503Z,91.06
2017-05-07T05:38:32.025Z,91.16
2017-05-07T05:39:12.530Z,90.87
2017-05-07T05:39:53.056Z,90.58
2017-05-07T05:40:33.572Z,90.34
2017-05-07T05:41:14.098Z,90.44
2017-05-07T05:41:54.614Z,90.15
2017-05-07T05:42:35.153Z,89.81
2017-05-07T05:43:15.687Z,90.48
2017-05-07T05:43:56.263Z,90.58
2017-05-07T05:44:36.767Z,90.39
2017-05-07T05:45:17.290Z,90.58
2017-05-07T05:45:57.805Z,90.67
2017-05-07T05:46:38.334Z,90.67
2017-05-07T05:47:18.882Z,90.24
2017-05-07T05:47:59.393Z,90.1
2017-05-07T05:48:39.978Z,90.58
2017-05-07T05:49:20.444Z,90.39
2017-05-07T05:50:00.980Z,90.67
2017-05-07T05:50:41.516Z,90.67
2017-05-07T05:51:22.049Z,89.72
2017-05-07T05:52:02.551Z,89.91
2017-05-07T05:52:43.085Z,89.48
2017-05-07T05:53:23.635Z,89.48
2017-05-07T05:54:04.150Z,89.67
2017-05-07T05:54:44.668Z,89.48
2017-05-07T05:55:25.162Z,89.67
2017-05-07T05:56:05.681Z,89
2017-05-07T05:56:46.206Z,89.09
2017-05-07T05:57:26.807Z,89.48
2017-05-07T05:58:07.332Z,89.58
2017-05-07T05:58:47.849Z,89.09
2017-05-07T05:59:28.361Z,89.09
2017-05-07T06:00:08.888Z,88.81
2017-05-07T06:00:49.438Z,89.19
2017-05-07T06:01:29.970Z,89.09
2017-05-07T06:02:10.526Z,89
2017-05-07T06:02:51.037Z,89.29
2017-05-07T06:03:31.569Z,89.38
2017-05-07T06:04:12.123Z,89.38
2017-05-07T06:04:52.642Z,89.67
2017-05-07T06:05:33.157Z,89.67
2017-05-07T06:06:13.680Z,89.58
2017-05-07T06:06:54.218Z,89.38
2017-05-07T06:07:34.736Z,89.48
2017-05-07T06:08:15.263Z,89.76
2017-05-07T06:08:55.819Z,89.67
2017-05-07T06:09:36.300Z,89.19
2017-05-07T06:10:16.808Z,88.9
2017-05-07T06:10:57.377Z,89.38
2017-05-07T06:11:37.910Z,89
2017-05-07T06:12:18.423Z,89.48
2017-05-07T06:12:58.948Z,89.19
2017-05-07T06:13:39.473Z,89.19
2017-05-07T06:14:20.000Z,89.48
2017-05-07T06:15:00.575Z,89.67
2017-05-07T06:15:41.086Z,90.05
2017-05-07T06:16:23.578Z,89.95
2017-05-07T06:17:04.103Z,90.2
2017-05-07T06:17:44.646Z,90.01
2017-05-07T06:18:25.262Z,90.39
2017-05-07T06:19:05.798Z,90.67
2017-05-07T06:19:46.316Z,90.96
2017-05-07T06:20:28.378Z,90.77
2017-05-07T06:21:08.895Z,90.58
2017-05-07T06:21:49.408Z,90.44
2017-05-07T06:22:29.931Z,90.44
2017-05-07T06:23:10.449Z,90.53
2017-05-07T06:23:50.959Z,89.95
2017-05-07T06:24:32.486Z,90.15
2017-05-07T06:25:13.012Z,90.05
2017-05-07T06:25:53.821Z,90.24
2017-05-07T06:26:34.232Z,90.24
2017-05-07T06:27:14.760Z,89.95
2017-05-07T06:27:55.269Z,90.05
2017-05-07T06:28:35.807Z,90.63
2017-05-07T06:29:16.330Z,90.44
2017-05-07T06:29:56.845Z,89.95
2017-05-07T06:30:37.369Z,89.67
2017-05-07T06:31:17.927Z,89.67
2017-05-07T06:31:58.455Z,89.09
2017-05-07T06:32:39.037Z,89.23
2017-05-07T06:33:19.604Z,88.9
2017-05-07T06:34:00.122Z,89
2017-05-07T06:34:40.693Z,89.29
2017-05-07T06:35:21.222Z,89.19
2017-05-07T06:36:01.736Z,89.95
2017-05-07T06:36:42.255Z,89.76
2017-05-07T06:37:22.769Z,89.95
2017-05-07T06:38:03.338Z,89.95
2017-05-07T06:38:43.842Z,89.38
2017-05-07T06:39:24.379Z,89.09
2017-05-07T06:40:04.938Z,89.29
2017-05-07T06:40:45.460Z,89.19
2017-05-07T06:41:25.947Z,88.9
2017-05-07T06:42:06.439Z,88.9
2017-05-07T06:42:46.953Z,89.29
2017-05-07T06:43:27.489Z,89
2017-05-07T06:44:08.081Z,89
2017-05-07T06:44:48.668Z,89.58
2017-05-07T06:45:29.148Z,89.29
2017-05-07T06:46:09.711Z,89.38
2017-05-07T06:46:50.235Z,89.29
2017-05-07T06:47:30.772Z,89.38
2017-05-07T06:48:11.302Z,89.48
2017-05-07T06:48:51.818Z,89.48
2017-05-07T06:49:32.348Z,89.48
2017-05-07T06:50:12.914Z,89.48
2017-05-07T06:50:53.439Z,89.67
2017-05-07T06:51:34.156Z,88.9
2017-05-07T06:52:14.668Z,89.48
2017-05-07T06:52:55.209Z,88.62
2017-05-07T06:53:35.726Z,88.81
2017-05-07T06:54:16.235Z,88.9
2017-05-07T06:54:57.672Z,88.81
2017-05-07T06:55:38.206Z,88.9
2017-05-07T06:56:18.857Z,89.19
2017-05-07T06:56:59.395Z,88.71
2017-05-07T06:57:39.904Z,89.48
2017-05-07T06:58:20.449Z,89.19
2017-05-07T06:59:00.941Z,89.38
2017-05-07T06:59:41.472Z,89.19
2017-05-07T07:00:22.504Z,89.67
2017-05-07T07:01:03.040Z,89.67
2017-05-07T07:01:43.565Z,89.58
2017-05-07T07:02:24.092Z,89.58
2017-05-07T07:03:04.636Z,90.05
2017-05-07T07:03:45.155Z,90.05
2017-05-07T07:04:25.676Z,90.05
2017-05-07T07:05:06.188Z,90.48
2017-05-07T07:05:46.699Z,90.53
2017-05-07T07:06:29.866Z,90.44
2017-05-07T07:07:10.372Z,90.34
2017-05-07T07:07:50.896Z,90.24
2017-05-07T07:08:31.441Z,90.24
2017-05-07T07:09:11.962Z,90.05
2017-05-07T07:09:52.507Z,89.95
2017-05-07T07:10:33.030Z,89.67
2017-05-07T07:11:13.560Z,89.58
2017-05-07T07:11:54.153Z,89.76
2017-05-07T07:12:34.671Z,90.24
2017-05-07T07:13:15.199Z,90.34
2017-05-07T07:13:55.714Z,90.34
2017-05-07T07:14:36.245Z,90.34
2017-05-07T07:15:16.782Z,90.34
2017-05-07T07:15:57.319Z,90.53
2017-05-07T07:16:37.842Z,90.72
2017-05-07T07:17:18.359Z,90.82
2017-05-07T07:17:58.881Z,91.01
2017-05-07T07:18:39.404Z,90.72
2017-05-07T07:20:32.889Z,90.44
2017-05-07T07:21:13.711Z,90.05
2017-05-07T07:21:54.220Z,90.44
2017-05-07T07:22:34.736Z,90.34
2017-05-07T07:23:15.277Z,90.44
2017-05-07T07:23:55.801Z,90.63
2017-05-07T07:24:36.391Z,90.63
2017-05-07T07:25:16.882Z,90.63
2017-05-07T07:25:57.397Z,90.63
2017-05-07T07:26:37.925Z,90.63
2017-05-07T07:27:18.443Z,90.63
2017-05-07T07:27:58.978Z,90.63
2017-05-07T07:28:39.478Z,90.63
2017-05-07T07:29:19.980Z,90.34
2017-05-07T07:30:00.503Z,90.44
2017-05-07T07:30:41.023Z,90.44
2017-05-07T07:31:21.568Z,90.82
2017-05-07T07:32:02.096Z,90.63
2017-05-07T07:32:42.620Z,90.72
2017-05-07T07:33:23.141Z,90.53
2017-05-07T07:34:03.764Z,89.95
2017-05-07T07:34:44.311Z,90.44
2017-05-07T07:35:24.832Z,90.44
2017-05-07T07:36:05.356Z,90.63
2017-05-07T07:36:45.873Z,90.72
2017-05-07T07:37:26.400Z,91.01
2017-05-07T07:38:06.921Z,90.72
2017-05-07T07:38:47.446Z,90.44
2017-05-07T07:39:27.992Z,90.82
2017-05-07T07:40:08.483Z,90.44
2017-05-07T07:40:49.005Z,91.01
2017-05-07T07:41:29.524Z,90.53
2017-05-07T07:42:10.055Z,90.44
2017-05-07T07:42:50.564Z,90.44
2017-05-07T07:43:31.088Z,90.44
2017-05-07T07:44:11.604Z,90.82
2017-05-07T07:44:52.154Z,90.53
2017-05-07T07:45:32.673Z,90.63
2017-05-07T07:46:13.194Z,90.44
2017-05-07T07:46:53.719Z,90.24
2017-05-07T07:47:34.251Z,90.63
2017-05-07T07:48:14.786Z,90.72
2017-05-07T07:48:55.320Z,89.95
2017-05-07T07:49:35.845Z,90.53
2017-05-07T07:50:16.358Z,90.34
2017-05-07T07:50:56.876Z,90.63
2017-05-07T07:51:37.417Z,90.44
2017-05-07T07:52:17.946Z,91.2
2017-05-07T07:52:58.476Z,91.01
2017-05-07T07:53:39.000Z,91.58
2017-05-07T07:54:19.526Z,91.97
2017-05-07T07:55:00.095Z,91.68
2017-05-07T07:55:40.597Z,91.87
2017-05-07T07:56:21.131Z,91.49
2017-05-07T07:57:01.636Z,91.58
2017-05-07T07:57:42.155Z,91.77
2017-05-07T07:58:22.684Z,91.97
2017-05-07T07:59:03.240Z,91.87
2017-05-07T07:59:43.756Z,91.87
2017-05-07T08:00:24.273Z,91.39
2017-05-07T08:01:04.806Z,91.49
2017-05-07T08:01:45.323Z,91.3
2017-05-07T08:02:25.839Z,92.06
2017-05-07T08:03:06.358Z,92.16
2017-05-07T08:03:46.894Z,92.06
2017-05-07T08:04:27.435Z,92.06
2017-05-07T08:05:07.956Z,91.68
2017-05-07T08:05:48.484Z,92.06
2017-05-07T08:06:29.009Z,91.77
2017-05-07T08:07:09.538Z,91.49
2017-05-07T08:07:50.055Z,91.01
2017-05-07T08:08:30.576Z,91.2
2017-05-07T08:09:11.089Z,91.2
2017-05-07T08:09:51.615Z,90.91
2017-05-07T08:10:32.126Z,91.3
2017-05-07T08:11:12.654Z,91.01
2017-05-07T08:11:53.201Z,91.01
2017-05-07T08:12:33.723Z,90.82
2017-05-07T08:13:14.244Z,91.01
2017-05-07T08:13:54.759Z,90.63
2017-05-07T08:14:35.276Z,90.44
2017-05-07T08:15:15.798Z,90.48
2017-05-07T08:15:56.313Z,90.48
2017-05-07T08:16:36.841Z,90.77
2017-05-07T08:17:17.396Z,90.19
2017-05-07T08:17:57.907Z,89.9
2017-05-07T08:18:38.437Z,90.19
2017-05-07T08:19:18.979Z,89.9
2017-05-07T08:19:59.518Z,90
2017-05-07T08:20:40.016Z,89.81
2017-05-07T08:21:20.545Z,89.9
2017-05-07T08:22:01.074Z,89.72
2017-05-07T08:22:41.598Z,90.29
2017-05-07T08:23:22.127Z,90.39
2017-05-07T08:24:02.656Z,90
2017-05-07T08:24:43.185Z,90.09
2017-05-07T08:25:23.723Z,90.29
2017-05-07T08:26:04.256Z,90
2017-05-07T08:26:44.762Z,90.09
2017-05-07T08:27:25.282Z,90.48
2017-05-07T08:28:05.802Z,90.67
2017-05-07T08:28:46.332Z,90.67
2017-05-07T08:29:26.865Z,90.09
2017-05-07T08:30:07.382Z,89.81
2017-05-07T08:30:47.926Z,90.09
2017-05-07T08:31:28.456Z,89.81
2017-05-07T08:32:08.978Z,89.72
2017-05-07T08:32:49.532Z,89.9
2017-05-07T08:33:30.047Z,90
2017-05-07T08:34:10.605Z,89.9
2017-05-07T08:34:51.203Z,89.81
2017-05-07T08:35:31.751Z,89.9
2017-05-07T08:36:12.270Z,89.52
2017-05-07T08:36:52.789Z,89.81
2017-05-07T08:37:33.554Z,89.81
2017-05-07T08:38:14.076Z,89.72
2017-05-07T08:38:54.603Z,90
2017-05-07T08:39:35.128Z,89.9
2017-05-07T08:40:15.800Z,89.72
2017-05-07T08:40:56.192Z,89.9
2017-05-07T08:41:36.705Z,89.62
2017-05-07T08:42:17.288Z,90
2017-05-07T08:42:57.837Z,90
2017-05-07T08:43:38.350Z,90.48
2017-05-07T08:44:18.894Z,90.58
2017-05-07T08:44:59.417Z,90.48
2017-05-07T08:45:39.936Z,90.29
2017-05-07T08:46:20.565Z,90.67
2017-05-07T08:47:01.097Z,90.09
2017-05-07T08:47:41.627Z,90
2017-05-07T08:48:22.143Z,90.67
2017-05-07T08:49:02.683Z,90.48
2017-05-07T08:49:43.212Z,90.39
2017-05-07T08:50:23.762Z,90.77
2017-05-07T08:51:04.292Z,90.09
2017-05-07T08:51:44.850Z,90.48